Westrac — WTH4325 — position and weather

sailwx.info

Track history (hours):
 
Tides and Currents Weather Stations Pressure Air Temp Water Temp Dewpoint Dewpoint Depression Visibility Wind Speed Wind Dir Waves Ship Positions

Westrac

Owner: WESTERN TOWBOAT CO, SEATTLE, WA. More information available from US FCC via Universal Licensing System and Coast Guard Vessel Documentation Center.

Last reported at 2017-Jan-17 20:33 UTC. Time now 2017-Jan-17 21:24 UTC.
Position N 47°35' W 122°21'.

Length 23 m; draft 5 m.

Type: Tug. MMSI: 366993010.

Date/timePositionNaut miles runAvg speedWind from/ knotsBaromVisibWave heightAir tempDewpointWater temp
2017-Jan-17 20:33N 47°35' W 122°21'2 2.3
2017-Jan-17 19:33N 47°33' W 122°20'0 0.4
2017-Jan-17 18:33N 47°33' W 122°21'2 2.2
2017-Jan-17 17:33N 47°36' W 122°21'1 1.4
2017-Jan-17 16:33N 47°34' W 122°21'0 0.0
2017-Jan-17 15:34N 47°34' W 122°21'0 0.2
2017-Jan-17 14:33N 47°34' W 122°21'0 0.0
2017-Jan-16 00:23N 47°34' W 122°21'1 1.3
2017-Jan-15 23:33N 47°33' W 122°20'2 2.3
2017-Jan-15 22:33N 47°35' W 122°22'1 1.3
2017-Jan-15 21:33N 47°34' W 122°21'0 0.0
2017-Jan-15 20:33N 47°34' W 122°21'0 0.2
2017-Jan-15 19:33N 47°34' W 122°21'0 0.0
2017-Jan-14 17:33N 47°34' W 122°21'1 0.8
2017-Jan-14 16:33N 47°33' W 122°21'3 2.5
2017-Jan-14 15:33N 47°36' W 122°22'0 0.0
2017-Jan-14 03:33N 47°35' W 122°22'2 0.4
2017-Jan-13 23:33N 47°34' W 122°21'0 0.0
2017-Jan-13 22:32N 47°34' W 122°21'0 0.0
2017-Jan-13 21:33N 47°34' W 122°21'0 0.0
2017-Jan-13 20:34N 47°34' W 122°21'0 0.0
2017-Jan-13 19:33N 47°34' W 122°21'0 0.0
2017-Jan-13 18:33N 47°34' W 122°21'0 0.2
2017-Jan-13 17:33N 47°34' W 122°21'2 1.7
2017-Jan-13 16:33N 47°36' W 122°21'2 1.7
2017-Jan-13 15:33N 47°34' W 122°21'0 0.0
2017-Jan-13 03:33N 47°34' W 122°21'0 0.1
2017-Jan-13 02:33N 47°34' W 122°21'1 0.9
2017-Jan-13 01:33N 47°33' W 122°20'0 0.4
2017-Jan-13 00:33N 47°33' W 122°20'4 3.6
2017-Jan-12 23:33N 47°36' W 122°23'2 1.6
2017-Jan-12 22:33N 47°35' W 122°22'0 0.2
2017-Jan-12 21:33N 47°35' W 122°22'1 0.1
2017-Jan-12 14:33N 47°34' W 122°21'1 1.3
2017-Jan-12 13:33N 47°35' W 122°22'1 0.1
2017-Jan-12 02:16N 47°34' W 122°21'1 1.2
2017-Jan-12 01:33N 47°35' W 122°22'2 2.0
2017-Jan-12 00:33N 47°33' W 122°20'2 1.5
2017-Jan-11 23:33N 47°34' W 122°21'0 0.5
2017-Jan-11 22:33N 47°34' W 122°21'3 3.4
2017-Jan-11 21:33N 47°31' W 122°18'3 3.4
2017-Jan-11 20:33N 47°34' W 122°21'1 0.6
2017-Jan-11 19:33N 47°35' W 122°21'3 3.1
2017-Jan-11 18:33N 47°37' W 122°23'5 4.8
2017-Jan-11 17:33N 47°33' W 122°20'3 2.7
2017-Jan-11 16:33N 47°35' W 122°22'2 1.9
2017-Jan-11 15:33N 47°34' W 122°21'0 0.5
2017-Jan-11 14:33N 47°34' W 122°21'0 0.0
2017-Jan-11 13:33N 47°34' W 122°21'1 0.1
2017-Jan-10 21:33N 47°33' W 122°21'2 2.3
2017-Jan-10 20:34N 47°36' W 122°21'0 0.3
2017-Jan-10 19:34N 47°35' W 122°21'1 0.8
2017-Jan-10 18:34N 47°35' W 122°22'1 0.8
2017-Jan-10 17:34N 47°35' W 122°21'1 1.3
2017-Jan-10 16:34N 47°34' W 122°21'1 0.6
2017-Jan-10 15:34N 47°35' W 122°22'1 0.8
2017-Jan-10 14:33N 47°35' W 122°21'1 1.2
2017-Jan-10 13:33N 47°34' W 122°21'0 0.0
2017-Jan-09 17:25N 47°34' W 122°21'1 0.8
2017-Jan-09 16:33N 47°33' W 122°21'2 1.9
2017-Jan-09 15:33N 47°35' W 122°22'4 4.3
2017-Jan-09 14:33N 47°36' W 122°28'2 2.2
2017-Jan-09 13:34N 47°37' W 122°31'7 7.4
2017-Jan-09 12:33N 47°34' W 122°21'0 0.0
2017-Jan-09 11:34N 47°34' W 122°21'1 1.1
2017-Jan-09 10:33N 47°35' W 122°22'1 1.1
2017-Jan-09 09:33N 47°34' W 122°21'0 0.0
2017-Jan-09 08:33N 47°34' W 122°21'0 0.0
2017-Jan-09 07:33N 47°34' W 122°21'0 0.0
2017-Jan-09 06:33N 47°34' W 122°21'0 0.0
2017-Jan-09 05:33N 47°34' W 122°21'0 0.0
2017-Jan-09 04:33N 47°34' W 122°21'0 0.0
2017-Jan-09 03:33N 47°34' W 122°21'1 1.1
2017-Jan-09 02:33N 47°33' W 122°20'3 2.6
2017-Jan-09 01:34N 47°36' W 122°22'2 1.5
2017-Jan-09 00:33N 47°34' W 122°21'0 0.0
2017-Jan-08 23:33N 47°34' W 122°21'0 0.0
2017-Jan-08 22:33N 47°34' W 122°21'0 0.0
2017-Jan-08 21:33N 47°34' W 122°21'1 0.7
2017-Jan-08 20:33N 47°33' W 122°21'2 2.1
2017-Jan-08 19:34N 47°35' W 122°22'0 0.0
2017-Jan-07 20:34N 47°35' W 122°22'  
Track history (hours):
 
Tides and Currents Weather Stations Pressure Air Temp Water Temp Dewpoint Dewpoint Depression Visibility Wind Speed Wind Dir Waves Ship Positions

Westrac

Owner: WESTERN TOWBOAT CO, SEATTLE, WA. More information available from US FCC via Universal Licensing System and Coast Guard Vessel Documentation Center.

Last reported at 2017-Jan-17 20:33 UTC. Time now 2017-Jan-17 21:24 UTC.
Position N 47°35' W 122°21'.

Length 23 m; draft 5 m.

Type: Tug. MMSI: 366993010.

Date/timePositionNaut miles runAvg speedWind from/ knotsBaromVisibWave heightAir tempDewpointWater temp
2017-Jan-17 20:33N 47°35' W 122°21'2 2.3
2017-Jan-17 19:33N 47°33' W 122°20'0 0.4
2017-Jan-17 18:33N 47°33' W 122°21'2 2.2
2017-Jan-17 17:33N 47°36' W 122°21'1 1.4
2017-Jan-17 16:33N 47°34' W 122°21'0 0.0
2017-Jan-17 15:34N 47°34' W 122°21'0 0.2
2017-Jan-17 14:33N 47°34' W 122°21'0 0.0
2017-Jan-16 00:23N 47°34' W 122°21'1 1.3
2017-Jan-15 23:33N 47°33' W 122°20'2 2.3
2017-Jan-15 22:33N 47°35' W 122°22'1 1.3
2017-Jan-15 21:33N 47°34' W 122°21'0 0.0
2017-Jan-15 20:33N 47°34' W 122°21'0 0.2
2017-Jan-15 19:33N 47°34' W 122°21'0 0.0
2017-Jan-14 17:33N 47°34' W 122°21'1 0.8
2017-Jan-14 16:33N 47°33' W 122°21'3 2.5
2017-Jan-14 15:33N 47°36' W 122°22'0 0.0
2017-Jan-14 03:33N 47°35' W 122°22'2 0.4
2017-Jan-13 23:33N 47°34' W 122°21'0 0.0
2017-Jan-13 22:32N 47°34' W 122°21'0 0.0
2017-Jan-13 21:33N 47°34' W 122°21'0 0.0
2017-Jan-13 20:34N 47°34' W 122°21'0 0.0
2017-Jan-13 19:33N 47°34' W 122°21'0 0.0
2017-Jan-13 18:33N 47°34' W 122°21'0 0.2
2017-Jan-13 17:33N 47°34' W 122°21'2 1.7
2017-Jan-13 16:33N 47°36' W 122°21'2 1.7
2017-Jan-13 15:33N 47°34' W 122°21'0 0.0
2017-Jan-13 03:33N 47°34' W 122°21'0 0.1
2017-Jan-13 02:33N 47°34' W 122°21'1 0.9
2017-Jan-13 01:33N 47°33' W 122°20'0 0.4
2017-Jan-13 00:33N 47°33' W 122°20'4 3.6
2017-Jan-12 23:33N 47°36' W 122°23'2 1.6
2017-Jan-12 22:33N 47°35' W 122°22'0 0.2
2017-Jan-12 21:33N 47°35' W 122°22'1 0.1
2017-Jan-12 14:33N 47°34' W 122°21'1 1.3
2017-Jan-12 13:33N 47°35' W 122°22'1 0.1
2017-Jan-12 02:16N 47°34' W 122°21'1 1.2
2017-Jan-12 01:33N 47°35' W 122°22'2 2.0
2017-Jan-12 00:33N 47°33' W 122°20'2 1.5
2017-Jan-11 23:33N 47°34' W 122°21'0 0.5
2017-Jan-11 22:33N 47°34' W 122°21'3 3.4
2017-Jan-11 21:33N 47°31' W 122°18'3 3.4
2017-Jan-11 20:33N 47°34' W 122°21'1 0.6
2017-Jan-11 19:33N 47°35' W 122°21'3 3.1
2017-Jan-11 18:33N 47°37' W 122°23'5 4.8
2017-Jan-11 17:33N 47°33' W 122°20'3 2.7
2017-Jan-11 16:33N 47°35' W 122°22'2 1.9
2017-Jan-11 15:33N 47°34' W 122°21'0 0.5
2017-Jan-11 14:33N 47°34' W 122°21'0 0.0
2017-Jan-11 13:33N 47°34' W 122°21'1 0.1
2017-Jan-10 21:33N 47°33' W 122°21'2 2.3
2017-Jan-10 20:34N 47°36' W 122°21'0 0.3
2017-Jan-10 19:34N 47°35' W 122°21'1 0.8
2017-Jan-10 18:34N 47°35' W 122°22'1 0.8
2017-Jan-10 17:34N 47°35' W 122°21'1 1.3
2017-Jan-10 16:34N 47°34' W 122°21'1 0.6
2017-Jan-10 15:34N 47°35' W 122°22'1 0.8
2017-Jan-10 14:33N 47°35' W 122°21'1 1.2
2017-Jan-10 13:33N 47°34' W 122°21'0 0.0
2017-Jan-09 17:25N 47°34' W 122°21'1 0.8
2017-Jan-09 16:33N 47°33' W 122°21'2 1.9
2017-Jan-09 15:33N 47°35' W 122°22'4 4.3
2017-Jan-09 14:33N 47°36' W 122°28'2 2.2
2017-Jan-09 13:34N 47°37' W 122°31'7 7.4
2017-Jan-09 12:33N 47°34' W 122°21'0 0.0
2017-Jan-09 11:34N 47°34' W 122°21'1 1.1
2017-Jan-09 10:33N 47°35' W 122°22'1 1.1
2017-Jan-09 09:33N 47°34' W 122°21'0 0.0
2017-Jan-09 08:33N 47°34' W 122°21'0 0.0
2017-Jan-09 07:33N 47°34' W 122°21'0 0.0
2017-Jan-09 06:33N 47°34' W 122°21'0 0.0
2017-Jan-09 05:33N 47°34' W 122°21'0 0.0
2017-Jan-09 04:33N 47°34' W 122°21'0 0.0
2017-Jan-09 03:33N 47°34' W 122°21'1 1.1
2017-Jan-09 02:33N 47°33' W 122°20'3 2.6
2017-Jan-09 01:34N 47°36' W 122°22'2 1.5
2017-Jan-09 00:33N 47°34' W 122°21'0 0.0
2017-Jan-08 23:33N 47°34' W 122°21'0 0.0
2017-Jan-08 22:33N 47°34' W 122°21'0 0.0
2017-Jan-08 21:33N 47°34' W 122°21'1 0.7
2017-Jan-08 20:33N 47°33' W 122°21'2 2.1
2017-Jan-08 19:34N 47°35' W 122°22'0 0.0
2017-Jan-07 20:34N 47°35' W 122°22'  

Dump ship's entire track history